Time;durP1;ratioP1;P1;durP2;ratioP2;P2;SDS_P1;SDS_P2;PMS_P1;PMS_P2;Temp;Humidity;BMP_temperature;BMP_pressure;BME280_temperature;BME280_humidity;BME280_pressure;Samples;Min_cycle;Max_cycle;Signal;HPM_P1;HPM_P2
2022/02/07 00:02:21;;;;;;;40.45;14.85;;;;;;;2.74;62.97;91990.50;5040210;28;20094;-93
2022/02/07 00:05:06;;;;;;;42.10;14.32;;;;;;;2.84;62.81;91998.34;5042207;28;20146;-92
2022/02/07 00:12:08;;;;;;;43.88;14.00;;;;;;;2.66;62.92;91963.34;5015697;28;20049;-92
2022/02/07 00:19:29;;;;;;;;;;;;;;;;;;;;;
2022/02/07 00:49:55;;;;;;;49.08;14.93;;;;;;;2.74;60.53;91832.84;5066979;28;20055;-91
2022/02/07 00:56:38;;;;;;;41.95;13.68;;;;;;;2.75;59.12;91836.97;5077355;28;20044;-92
2022/02/07 01:11:57;;;;;;;44.70;13.80;;;;;;;3.05;58.95;91834.47;5056646;28;20382;-92
2022/02/07 01:18:20;;;;;;;;;;;;;;;;;;;;;
2022/02/07 01:51:59;;;;;;;16.85;5.57;;;;;;;3.21;58.73;91796.50;5053057;28;20045;-91
2022/02/07 01:58:46;;;;;;;12.60;4.60;;;;;;;2.67;60.43;91717.56;5056522;28;20433;-93
2022/02/07 02:09:17;;;;;;;;;;;;;;;;;;;;;
2022/02/07 02:51:06;;;;;;;30.40;10.23;;;;;;;2.37;63.10;91651.13;4993291;28;20073;-92
2022/02/07 02:58:24;;;;;;;28.17;9.85;;;;;;;2.32;63.35;91621.91;4935933;29;20122;-91
2022/02/07 03:19:52;;;;;;;33.47;10.00;;;;;;;2.34;63.81;91604.34;5006318;28;20052;-92
2022/02/07 03:33:57;;;;;;;32.67;11.00;;;;;;;2.77;62.68;91587.59;5033245;28;20058;-92
2022/02/07 03:48:25;;;;;;;27.13;8.02;;;;;;;2.93;62.23;91585.75;4992517;28;20049;-92
2022/02/07 04:33:21;;;;;;;3.45;1.48;;;;;;;4.48;63.73;91540.00;4911216;29;20082;-92
2022/02/07 05:03:40;;;;;;;;;;;;;;;;;;;;;
2022/02/07 05:27:25;;;;;;;;;;;;;;;;;;;;;
2022/02/07 06:05:54;;;;;;;0.40;0.40;;;;;;;4.35;76.35;91824.63;4863925;29;20060;-91
2022/02/07 06:12:50;;;;;;;;;;;;;;;;;;;;;
2022/02/07 06:38:38;;;;;;;3.95;1.10;;;;;;;3.70;68.44;91872.88;4979038;28;20040;-88
2022/02/07 06:41:10;;;;;;;1.25;0.95;;;;;;;3.89;66.99;91912.72;4960265;28;20093;-89
2022/02/07 06:43:52;;;;;;;1.73;1.00;;;;;;;3.70;66.34;91878.81;4991300;28;20492;-89
2022/02/07 06:46:41;;;;;;;;;;;;;;;;;;;;;
2022/02/07 06:49:45;;;;;;;2.10;1.20;;;;;;;3.75;62.48;91920.22;4979034;28;20488;-87
2022/02/07 06:52:23;;;;;;;1.55;1.00;;;;;;;4.06;62.13;91968.69;5037025;28;20038;-88
2022/02/07 06:55:27;;;;;;;2.17;1.13;;;;;;;4.25;59.58;91927.50;5047163;28;20053;-88
2022/02/07 06:58:01;;;;;;;1.55;1.15;;;;;;;4.36;58.13;91935.00;5025220;28;20503;-88
2022/02/07 07:00:35;;;;;;;3.40;1.83;;;;;;;4.56;58.67;91964.53;5013631;28;20034;-89
2022/02/07 07:03:05;;;;;;;0.85;0.75;;;;;;;5.48;55.33;92002.41;5014934;28;20129;-94
2022/02/07 07:47:17;;;;;;;21.70;10.20;;;;;;;18.58;21.51;92137.69;4862737;29;20073;-95
2022/02/07 08:02:24;;;;;;;4.97;2.50;;;;;;;21.19;15.82;92163.78;4884032;29;20071;-92
2022/02/07 08:13:17;;;;;;;;;;;;;;;;;;;;;
2022/02/07 08:24:48;;;;;;;;;;;;;;;;;;;;;
2022/02/07 08:28:09;;;;;;;0.40;0.40;;;;;;;18.44;18.05;92284.66;4902336;29;20055;-94
2022/02/07 08:31:24;;;;;;;;;;;;;;;;;;;;;
2022/02/07 08:35:08;;;;;;;3.83;1.05;;;;;;;16.22;19.13;92313.06;4956369;28;20542;-94
2022/02/07 08:38:33;;;;;;;3.58;1.45;;;;;;;15.20;21.79;92325.56;5011016;28;20041;-93
2022/02/07 08:41:40;;;;;;;2.50;0.65;;;;;;;12.25;23.92;92269.16;5041998;28;20132;-93
2022/02/07 08:45:19;;;;;;;;;;;;;;;;;;;;;
2022/02/07 08:51:35;;;;;;;;;;;;;;;;;;;;;
2022/02/07 08:54:58;;;;;;;1.85;1.02;;;;;;;11.32;25.15;92353.56;5034313;28;20129;-94
2022/02/07 09:06:04;;;;;;;;;;;;;;;;;;;;;
2022/02/07 09:12:38;;;;;;;1.20;0.70;;;;;;;8.73;25.67;92381.50;4993160;28;20451;-86
2022/02/07 09:15:28;;;;;;;3.35;0.73;;;;;;;9.87;26.78;92436.59;5066630;28;20056;-88
2022/02/07 09:18:07;;;;;;;;;;;;;;;;;;;;;
2022/02/07 09:20:44;;;;;;;0.68;0.40;;;;;;;9.86;24.00;92407.06;5035000;28;20041;-87
2022/02/07 09:23:30;;;;;;;0.75;0.52;;;;;;;8.74;27.24;92403.97;5037884;28;20033;-87
2022/02/07 09:25:59;;;;;;;0.88;0.57;;;;;;;8.13;26.38;92426.88;5053784;28;20037;-87
2022/02/07 09:28:55;;;;;;;1.52;0.80;;;;;;;7.40;27.95;92416.34;5030888;28;20022;-88
2022/02/07 09:31:48;;;;;;;;;;;;;;;;;;;;;
2022/02/07 09:35:04;;;;;;;;;;;;;;;;;;;;;
2022/02/07 09:37:47;;;;;;;0.93;0.70;;;;;;;9.92;26.15;92517.59;5016048;28;20141;-90
2022/02/07 09:40:31;;;;;;;1.50;0.60;;;;;;;9.10;25.06;92463.66;5014227;28;20038;-89
2022/02/07 09:43:34;;;;;;;7.50;1.00;;;;;;;8.84;26.52;92518.69;5013496;28;20038;-88
2022/02/07 09:46:52;;;;;;;2.55;0.82;;;;;;;9.26;25.99;92472.88;5013400;28;20030;-90
2022/02/07 09:49:25;;;;;;;3.03;0.70;;;;;;;9.76;24.57;92491.63;5003795;28;20042;-89
2022/02/07 09:52:03;;;;;;;;;;;;;;;;;;;;;
2022/02/07 09:57:32;;;;;;;1.42;0.73;;;;;;;10.64;24.09;92504.31;5007104;28;20049;-89
2022/02/07 10:00:18;;;;;;;;;;;;;;;;;;;;;
2022/02/07 10:03:28;;;;;;;1.98;0.82;;;;;;;10.61;21.82;92500.44;5013818;28;20561;-90
2022/02/07 10:06:10;;;;;;;1.77;0.77;;;;;;;9.73;22.91;92512.34;5007994;28;20058;-89
2022/02/07 10:12:22;;;;;;;;;;;;;;;;;;;;;
2022/02/07 10:15:39;;;;;;;;;;;;;;;;;;;;;
2022/02/07 10:18:57;;;;;;;2.83;1.10;;;;;;;10.37;23.42;92601.81;5051223;28;20049;-89
2022/02/07 10:22:03;;;;;;;0.85;0.65;;;;;;;9.51;22.79;92575.56;5024055;28;20033;-89
2022/02/07 10:38:08;;;;;;;1.17;0.68;;;;;;;9.53;20.77;92594.34;5077233;28;20043;-89
2022/02/07 10:47:32;;;;;;;0.47;0.35;;;;;;;10.96;19.59;92629.25;5063742;28;20136;-90
2022/02/07 10:50:29;;;;;;;0.95;0.60;;;;;;;10.89;19.17;92594.03;5038807;28;20111;-89
2022/02/07 10:53:07;;;;;;;3.00;0.50;;;;;;;10.63;18.52;92610.88;5020260;28;20048;-90
2022/02/07 10:56:02;;;;;;;1.10;0.52;;;;;;;11.21;19.03;92612.41;5039604;28;20051;-90
2022/02/07 10:58:36;;;;;;;0.75;0.43;;;;;;;11.14;19.03;92608.56;5047019;28;20060;-89
2022/02/07 11:01:52;;;;;;;2.13;0.50;;;;;;;11.88;18.74;92650.63;5074657;28;20036;-90
2022/02/07 11:04:19;;;;;;;2.00;0.75;;;;;;;11.08;17.81;92583.53;5029975;28;20049;-90
2022/02/07 11:07:06;;;;;;;0.43;0.32;;;;;;;11.43;18.14;92593.41;5041018;28;20039;-89
2022/02/07 11:16:22;;;;;;;2.67;0.70;;;;;;;11.85;17.25;92625.75;4991134;28;20042;-90
2022/02/07 11:19:23;;;;;;;;;;;;;;;;;;;;;
2022/02/07 11:22:45;;;;;;;;;;;;;;;;;;;;;
2022/02/07 11:25:37;;;;;;;;;;;;;;;;;;;;;
2022/02/07 11:28:43;;;;;;;0.50;0.50;;;;;;;10.30;17.23;92610.00;5076908;28;20036;-90
2022/02/07 11:34:53;;;;;;;0.65;0.65;;;;;;;10.81;16.46;92598.09;5051023;28;20058;-90
2022/02/07 11:37:56;;;;;;;0.40;0.40;;;;;;;10.74;16.90;92580.09;5074629;28;20494;-90
2022/02/07 11:40:59;;;;;;;0.68;0.47;;;;;;;10.98;16.73;92566.91;5063191;28;20033;-90
2022/02/07 11:43:57;;;;;;;0.73;0.50;;;;;;;11.32;16.40;92649.69;5058948;28;20055;-90
2022/02/07 11:46:44;;;;;;;;;;;;;;;;;;;;;
2022/02/07 11:49:41;;;;;;;3.00;0.60;;;;;;;11.11;16.37;92651.06;5062333;28;20489;-89
2022/02/07 11:52:36;;;;;;;0.40;0.40;;;;;;;11.37;16.31;92635.72;5052933;28;20048;-89
2022/02/07 11:55:57;;;;;;;;;;;;;;;;;;;;;
2022/02/07 11:58:57;;;;;;;0.63;0.52;;;;;;;10.90;15.70;92621.75;5063340;28;20032;-90
2022/02/07 12:02:00;;;;;;;;;;;;;;;;;;;;;
2022/02/07 12:04:41;;;;;;;;;;;;;;;;;;;;;
2022/02/07 12:07:38;;;;;;;1.38;0.63;;;;;;;10.87;15.10;92646.69;5057134;28;20059;-89
2022/02/07 12:10:47;;;;;;;9.68;0.90;;;;;;;10.40;15.54;92641.28;5072208;28;20037;-90
2022/02/07 12:13:44;;;;;;;0.95;0.52;;;;;;;10.76;15.35;92606.78;5055161;28;20498;-90
2022/02/07 12:16:26;;;;;;;1.23;0.60;;;;;;;11.27;15.44;92614.94;5062941;28;20082;-89
2022/02/07 12:19:10;;;;;;;0.80;0.57;;;;;;;11.64;13.78;92653.38;5038701;28;20483;-85
2022/02/07 12:21:39;;;;;;;0.52;0.52;;;;;;;11.55;14.29;92592.97;5054097;28;20037;-87
2022/02/07 12:24:05;;;;;;;0.40;0.40;;;;;;;11.36;14.21;92597.50;5038024;28;20394;-87
2022/02/07 12:26:41;;;;;;;0.65;0.50;;;;;;;11.83;13.99;92654.09;5054932;28;20398;-87
2022/02/07 12:29:19;;;;;;;0.32;0.32;;;;;;;10.72;13.84;92597.94;5053491;28;20048;-86
2022/02/07 12:31:45;;;;;;;1.80;0.60;;;;;;;10.42;14.33;92625.28;5053415;28;20037;-87
2022/02/07 12:34:14;;;;;;;0.60;0.60;;;;;;;10.35;14.74;92617.00;5066499;28;20029;-86
2022/02/07 12:36:41;;;;;;;2.88;0.80;;;;;;;10.58;14.28;92636.34;5053150;28;20054;-87
2022/02/07 12:39:09;;;;;;;2.92;0.88;;;;;;;9.92;13.36;92596.81;5034747;28;20036;-85
2022/02/07 12:41:36;;;;;;;0.65;0.50;;;;;;;9.33;14.85;92650.19;5037773;28;20414;-86
2022/02/07 12:44:04;;;;;;;0.70;0.55;;;;;;;9.90;15.47;92609.38;5045977;28;20032;-86
2022/02/07 12:46:33;;;;;;;0.40;0.40;;;;;;;10.91;15.63;92658.16;5056926;28;20421;-86
2022/02/07 12:49:01;;;;;;;0.60;0.52;;;;;;;11.12;14.65;92658.63;5070190;28;20134;-86
2022/02/07 12:51:37;;;;;;;1.00;0.60;;;;;;;11.11;13.68;92651.84;5076795;28;20130;-86
2022/02/07 12:54:03;;;;;;;2.15;0.60;;;;;;;11.50;13.88;92669.06;5094247;28;20039;-86
2022/02/07 12:56:29;;;;;;;0.77;0.60;;;;;;;11.69;13.65;92663.78;5046646;28;20035;-86
2022/02/07 12:58:55;;;;;;;0.65;0.40;;;;;;;12.18;13.62;92691.31;5093264;28;20062;-86
2022/02/07 13:01:24;;;;;;;3.58;0.70;;;;;;;11.67;13.62;92684.28;5054993;28;20045;-86
2022/02/07 13:03:56;;;;;;;0.45;0.45;;;;;;;11.21;14.12;92677.13;5055128;28;20040;-85
2022/02/07 13:06:26;;;;;;;;;;;;;;;10.91;14.76;92697.44;5053472;28;20063;-85
2022/02/07 13:08:52;;;;;;;1.55;0.63;;;;;;;10.43;14.09;92692.28;5074574;28;20315;-86
2022/02/07 13:11:24;;;;;;;1.70;0.88;;;;;;;11.02;14.58;92704.09;5083470;28;20032;-88
2022/02/07 13:13:54;;;;;;;0.50;0.50;;;;;;;10.84;14.86;92681.31;5054651;28;20114;-85
2022/02/07 13:16:21;;;;;;;2.03;0.45;;;;;;;11.34;14.19;92705.22;5053884;28;20072;-86
2022/02/07 13:18:47;;;;;;;2.83;0.73;;;;;;;11.17;13.57;92694.50;5047613;28;20040;-86
2022/02/07 13:21:17;;;;;;;0.70;0.60;;;;;;;10.44;14.44;92704.28;5043572;28;20045;-85
2022/02/07 13:23:46;;;;;;;1.27;0.52;;;;;;;11.11;14.81;92712.09;5040623;28;20044;-86
2022/02/07 13:26:14;;;;;;;0.68;0.52;;;;;;;11.48;14.05;92710.50;5072815;28;20028;-85
2022/02/07 13:28:42;;;;;;;9.07;0.80;;;;;;;11.34;14.83;92702.59;5069884;28;20028;-86
2022/02/07 13:31:10;;;;;;;0.77;0.55;;;;;;;11.31;14.55;92713.66;5042295;28;20464;-84
2022/02/07 13:34:19;;;;;;;1.45;0.65;;;;;;;11.32;13.94;92733.56;5063694;28;20064;-85
2022/02/07 13:36:48;;;;;;;3.15;0.80;;;;;;;11.56;14.46;92733.47;5046068;28;20394;-85
2022/02/07 13:39:15;;;;;;;0.73;0.50;;;;;;;11.16;15.01;92747.94;5074425;28;20086;-85
2022/02/07 13:41:41;;;;;;;5.05;0.65;;;;;;;11.04;14.69;92733.41;5059616;28;20596;-85
2022/02/07 13:44:07;;;;;;;0.43;0.43;;;;;;;11.54;14.47;92738.22;5054658;28;20041;-86
2022/02/07 13:46:33;;;;;;;1.85;0.50;;;;;;;11.65;14.93;92757.97;5050897;28;20041;-92
2022/02/07 13:49:00;;;;;;;0.70;0.50;;;;;;;10.69;14.16;92682.28;5054127;28;20104;-89
2022/02/07 13:51:30;;;;;;;1.17;0.57;;;;;;;11.09;14.02;92739.66;5055476;28;20032;-89
2022/02/07 13:53:58;;;;;;;0.65;0.65;;;;;;;9.65;14.77;92735.88;5093748;28;20688;-89
2022/02/07 13:56:33;;;;;;;1.23;0.70;;;;;;;10.08;14.48;92738.66;5058836;28;20036;-89
2022/02/07 13:59:15;;;;;;;0.90;0.60;;;;;;;10.09;14.49;92761.16;5089089;28;20032;-90
2022/02/07 14:01:44;;;;;;;1.17;0.57;;;;;;;10.06;14.67;92734.75;5074249;28;20044;-89
2022/02/07 14:04:22;;;;;;;0.52;0.50;;;;;;;9.80;14.97;92761.91;5092726;28;20024;-89
2022/02/07 14:07:09;;;;;;;2.65;0.60;;;;;;;10.32;15.35;92764.09;5041783;28;20047;-89
2022/02/07 14:09:37;;;;;;;1.35;0.80;;;;;;;9.58;14.76;92770.19;5089597;28;20032;-88
2022/02/07 14:12:04;;;;;;;1.42;0.60;;;;;;;9.87;16.27;92773.91;5093029;28;20036;-89
2022/02/07 14:14:29;;;;;;;2.88;0.93;;;;;;;9.95;14.78;92799.44;5093566;28;20460;-88
2022/02/07 14:16:58;;;;;;;1.35;0.75;;;;;;;10.23;15.46;92784.81;5093898;28;20040;-88
2022/02/07 14:19:46;;;;;;;1.75;0.75;;;;;;;9.61;14.69;92813.28;5071881;28;20052;-90
2022/02/07 14:22:15;;;;;;;2.63;0.70;;;;;;;9.80;15.34;92801.13;5056272;28;20052;-89
2022/02/07 14:24:40;;;;;;;2.47;1.40;;;;;;;9.26;14.96;92804.63;5055655;28;20025;-88
2022/02/07 14:27:14;;;;;;;1.90;0.80;;;;;;;9.46;15.21;92761.13;5040612;28;20370;-90
2022/02/07 14:29:42;;;;;;;1.95;1.02;;;;;;;9.14;15.44;92827.66;5053487;28;20050;-91
2022/02/07 14:32:08;;;;;;;2.08;0.90;;;;;;;9.36;15.56;92819.44;5046481;28;20032;-89
2022/02/07 14:34:33;;;;;;;0.77;0.60;;;;;;;9.32;15.48;92815.81;5056457;28;20047;-89
2022/02/07 14:36:59;;;;;;;0.77;0.50;;;;;;;9.05;15.02;92806.56;5068113;28;20029;-89
2022/02/07 14:39:25;;;;;;;1.05;0.60;;;;;;;8.84;15.91;92800.63;5019601;28;20509;-92
2022/02/07 14:42:00;;;;;;;0.70;0.52;;;;;;;8.39;15.10;92757.16;5062320;28;20028;-91
2022/02/07 14:44:44;;;;;;;0.63;0.50;;;;;;;8.54;15.67;92778.03;5055642;28;20114;-89
2022/02/07 14:47:37;;;;;;;0.70;0.60;;;;;;;9.03;15.59;92837.38;5054289;28;20119;-90
2022/02/07 14:50:44;;;;;;;;;;;;;;;;;;;;;
2022/02/07 14:53:45;;;;;;;3.43;0.90;;;;;;;8.22;15.14;92776.50;5050356;28;20033;-89
2022/02/07 14:56:32;;;;;;;2.10;0.52;;;;;;;8.41;16.27;92810.66;5037165;28;20375;-89
2022/02/07 14:59:16;;;;;;;10.05;0.93;;;;;;;8.11;15.66;92809.63;5013165;28;20120;-89
2022/02/07 15:01:58;;;;;;;0.38;0.38;;;;;;;8.20;15.65;92801.31;5076856;28;20036;-89
2022/02/07 15:04:27;;;;;;;0.45;0.45;;;;;;;8.00;15.31;92860.22;5045750;28;20032;-89
2022/02/07 15:07:03;;;;;;;1.40;0.50;;;;;;;7.42;16.06;92797.13;5049261;28;20121;-89
2022/02/07 15:09:48;;;;;;;0.77;0.63;;;;;;;7.08;15.40;92776.75;5052247;28;20043;-89
2022/02/07 15:15:39;;;;;;;1.25;0.60;;;;;;;8.07;15.59;92831.28;5058052;28;20045;-88
2022/02/07 15:19:06;;;;;;;;;;;;;;;;;;;;;
2022/02/07 15:21:50;;;;;;;1.42;0.73;;;;;;;8.46;15.01;92820.31;5059398;28;20036;-90
2022/02/07 15:24:37;;;;;;;;;;;;;;;;;;;;;
2022/02/07 15:27:41;;;;;;;0.40;0.40;;;;;;;8.22;15.49;92885.25;5051024;28;20112;-90
2022/02/07 15:30:20;;;;;;;0.98;0.60;;;;;;;8.02;14.96;92865.19;5030087;28;20448;-89
2022/02/07 15:33:08;;;;;;;0.73;0.45;;;;;;;8.21;15.24;92866.22;5055019;28;20061;-89
2022/02/07 15:36:11;;;;;;;0.63;0.45;;;;;;;7.95;15.02;92856.81;5078643;28;20047;-93
2022/02/07 15:39:14;;;;;;;;;;;;;;;;;;;;;
2022/02/07 15:42:03;;;;;;;1.92;0.70;;;;;;;7.30;14.81;92847.63;5057308;28;20036;-90
2022/02/07 15:47:59;;;;;;;0.60;0.50;;;;;;;7.65;15.73;92884.41;5036265;28;20045;-88
2022/02/07 15:50:46;;;;;;;1.27;0.60;;;;;;;7.13;15.84;92893.91;5072723;28;20377;-89
2022/02/07 15:53:22;;;;;;;0.50;0.50;;;;;;;6.46;15.28;92854.56;5071887;28;20041;-89
2022/02/07 15:56:16;;;;;;;0.95;0.63;;;;;;;6.32;16.55;92876.03;5073962;28;20032;-88
2022/02/07 15:59:00;;;;;;;0.95;0.70;;;;;;;5.78;17.11;92856.88;5050907;28;20041;-88
2022/02/07 16:01:54;;;;;;;;;;;;;;;;;;;;;
2022/02/07 16:04:43;;;;;;;;;;;;;;;;;;;;;
2022/02/07 16:07:39;;;;;;;2.97;0.98;;;;;;;5.54;16.77;92897.97;5039930;28;20037;-89
2022/02/07 16:10:31;;;;;;;1.05;0.40;;;;;;;5.45;16.73;92917.63;5053672;28;20040;-87
2022/02/07 16:13:20;;;;;;;0.50;0.50;;;;;;;5.19;17.00;92893.19;5063578;28;20094;-88
2022/02/07 16:16:02;;;;;;;1.75;0.40;;;;;;;5.35;17.73;92948.66;5055952;28;20051;-87
2022/02/07 16:18:39;;;;;;;1.58;0.63;;;;;;;5.18;16.72;92944.31;5054718;28;20116;-88
2022/02/07 16:22:01;;;;;;;1.13;0.50;;;;;;;4.77;17.42;92910.06;5041866;28;20040;-87
2022/02/07 16:24:41;;;;;;;;;;;;;;;;;;;;;
2022/02/07 16:27:28;;;;;;;1.73;0.80;;;;;;;4.70;17.44;92925.00;5058243;28;20155;-88
2022/02/07 16:30:14;;;;;;;0.68;0.55;;;;;;;4.69;17.60;92940.81;5076228;28;20040;-90
2022/02/07 16:32:52;;;;;;;;;;;;;;;;;;;;;
2022/02/07 16:35:36;;;;;;;0.52;0.52;;;;;;;4.08;18.32;92899.22;5075384;28;20040;-90
2022/02/07 16:38:13;;;;;;;0.88;0.63;;;;;;;4.07;18.80;92910.59;5058706;28;20048;-88
2022/02/07 16:40:45;;;;;;;0.57;0.50;;;;;;;4.00;17.99;92921.09;5075752;28;20124;-89
2022/02/07 16:43:15;;;;;;;2.20;0.70;;;;;;;4.30;17.08;92944.13;5075729;28;20131;-87
2022/02/07 16:46:02;;;;;;;0.57;0.50;;;;;;;4.15;17.75;92947.28;5038172;28;20291;-88
2022/02/07 16:48:32;;;;;;;0.80;0.68;;;;;;;3.88;18.14;92939.31;5038888;28;20071;-87
2022/02/07 16:50:58;;;;;;;0.93;0.65;;;;;;;3.87;18.64;92961.06;5055949;28;20029;-87
2022/02/07 16:53:26;;;;;;;0.57;0.50;;;;;;;3.87;18.17;92965.44;5038266;28;20090;-87
2022/02/07 16:55:54;;;;;;;2.50;0.80;;;;;;;3.71;17.47;92941.09;5038294;28;20037;-88
2022/02/07 16:58:20;;;;;;;3.25;0.77;;;;;;;4.13;17.93;93036.63;5040135;28;20021;-87
2022/02/07 17:00:56;;;;;;;0.88;0.60;;;;;;;3.60;18.03;92949.69;5057442;28;20090;-88
2022/02/07 17:03:24;;;;;;;0.43;0.43;;;;;;;3.77;17.31;92963.47;5074980;28;20033;-88
2022/02/07 17:05:50;;;;;;;0.57;0.55;;;;;;;4.10;17.60;93029.31;5058166;28;20031;-87
2022/02/07 17:08:31;;;;;;;0.68;0.50;;;;;;;3.51;18.38;92967.38;5058169;28;20044;-88
2022/02/07 17:11:04;;;;;;;0.47;0.47;;;;;;;3.63;18.35;92969.94;5042545;28;20086;-87
2022/02/07 17:14:03;;;;;;;;;;;;;;;;;;;;;
2022/02/07 17:16:38;;;;;;;2.92;0.60;;;;;;;3.41;17.98;93003.44;5075088;28;20032;-88
2022/02/07 17:19:20;;;;;;;1.83;0.60;;;;;;;3.48;18.27;93025.56;5073358;28;20036;-89
2022/02/07 17:22:06;;;;;;;0.60;0.50;;;;;;;3.13;19.34;92979.88;5056817;28;20505;-88
2022/02/07 17:25:07;;;;;;;0.50;0.50;;;;;;;3.13;18.74;92968.75;5057278;28;20037;-90
2022/02/07 17:27:56;;;;;;;;;;;;;;;;;;;;;
2022/02/07 17:30:54;;;;;;;0.65;0.57;;;;;;;3.55;18.83;93054.72;5075935;28;20044;-91
2022/02/07 17:33:51;;;;;;;0.47;0.40;;;;;;;3.21;18.07;92991.66;5039388;28;20056;-90
2022/02/07 17:36:37;;;;;;;0.65;0.40;;;;;;;3.05;18.76;93006.09;5047674;28;20049;-91
2022/02/07 17:39:16;;;;;;;2.03;0.57;;;;;;;2.96;19.39;93006.66;5056572;28;20044;-92
2022/02/07 17:42:26;;;;;;;12.02;5.60;;;;;;;3.53;19.09;93095.59;5026502;28;20033;-90
2022/02/07 17:45:21;;;;;;;5.25;2.17;;;;;;;2.98;19.53;93041.63;5062989;28;20096;-88
2022/02/07 17:48:05;;;;;;;;;;;;;;;;;;;;;
2022/02/07 17:50:46;;;;;;;1.23;0.73;;;;;;;3.16;18.61;93060.63;5058375;28;20040;-88
2022/02/07 17:53:47;;;;;;;0.80;0.55;;;;;;;2.93;17.78;93023.41;5060013;28;20393;-88
2022/02/07 17:56:23;;;;;;;;;;;;;;;;;;;;;
2022/02/07 17:59:31;;;;;;;5.95;3.42;;;;;;;3.48;18.39;93123.16;5062625;28;20028;-89
2022/02/07 18:02:28;;;;;;;1.40;0.93;;;;;;;2.95;18.05;93025.75;5059721;28;20048;-88
2022/02/07 18:05:25;;;;;;;;;;;;;;;;;;;;;
2022/02/07 18:24:12;;;;;;;1.48;0.90;;;;;;;2.85;18.04;93062.53;4929660;29;20051;-89
2022/02/07 18:26:38;;;;;;;1.55;0.80;;;;;;;3.15;19.15;93118.53;4925149;29;20052;-85
2022/02/07 18:29:05;;;;;;;0.90;0.52;;;;;;;2.69;18.44;93056.22;4997406;28;20120;-84
2022/02/07 18:31:32;;;;;;;0.73;0.65;;;;;;;3.11;18.41;93105.28;5026140;28;20040;-85
2022/02/07 18:33:58;;;;;;;0.73;0.65;;;;;;;3.12;18.52;93110.22;5025772;28;20474;-85
2022/02/07 18:36:32;;;;;;;0.68;0.45;;;;;;;3.25;18.61;93155.00;5009584;28;20056;-87
2022/02/07 18:38:59;;;;;;;0.85;0.73;;;;;;;3.02;17.59;93104.06;5027727;28;20183;-85
2022/02/07 18:41:34;;;;;;;6.47;2.47;;;;;;;3.09;18.03;93084.81;5028693;28;20045;-87
2022/02/07 18:44:01;;;;;;;1.50;0.82;;;;;;;3.45;17.70;93132.16;5062211;28;20083;-85
2022/02/07 18:46:28;;;;;;;1.55;0.80;;;;;;;3.04;18.37;93104.59;5044586;28;20124;-86
2022/02/07 18:48:56;;;;;;;3.10;0.80;;;;;;;2.94;18.21;93102.56;5027978;28;20048;-86
2022/02/07 18:51:27;;;;;;;1.52;0.82;;;;;;;3.09;17.80;93141.72;5026327;28;20428;-87
2022/02/07 18:53:53;;;;;;;8.80;4.50;;;;;;;3.13;17.69;93135.09;5024117;28;20797;-85
2022/02/07 18:56:21;;;;;;;8.45;4.32;;;;;;;2.84;18.32;93118.66;5009499;28;20037;-86
2022/02/07 18:59:02;;;;;;;3.85;1.90;;;;;;;2.90;19.03;93142.81;5010626;28;20061;-86
2022/02/07 19:01:38;;;;;;;15.80;8.05;;;;;;;2.80;19.59;93160.69;5021148;28;20419;-87
2022/02/07 19:04:13;;;;;;;5.43;2.85;;;;;;;2.56;19.10;93126.22;5043187;28;20057;-87
2022/02/07 19:06:43;;;;;;;1.60;0.90;;;;;;;2.54;18.15;93103.16;5027877;28;20044;-89
2022/02/07 19:09:10;;;;;;;1.73;0.90;;;;;;;3.08;17.86;93171.19;5009873;28;20064;-87
2022/02/07 19:11:38;;;;;;;2.00;1.05;;;;;;;2.87;17.83;93122.59;5040900;28;20041;-88
2022/02/07 19:14:10;;;;;;;13.80;6.15;;;;;;;2.86;18.14;93128.75;5026439;28;20060;-91
2022/02/07 19:17:08;;;;;;;6.50;2.90;;;;;;;2.63;18.84;93132.06;5019913;28;20766;-86
2022/02/07 19:19:35;;;;;;;2.47;1.38;;;;;;;2.67;18.63;93152.09;5003144;28;20049;-88
2022/02/07 19:22:21;;;;;;;1.33;0.68;;;;;;;2.80;19.30;93189.13;5027059;28;20042;-88
2022/02/07 19:24:52;;;;;;;7.25;3.53;;;;;;;2.52;18.86;93125.88;5027311;28;20033;-86
2022/02/07 19:27:30;;;;;;;36.58;14.80;;;;;;;3.17;17.96;93214.84;5025495;28;20033;-86
2022/02/07 19:30:01;;;;;;;1.67;0.82;;;;;;;2.94;17.57;93138.78;5022677;28;20114;-87
2022/02/07 19:32:36;;;;;;;5.80;3.08;;;;;;;3.05;17.83;93171.63;5013927;28;20026;-87
2022/02/07 19:35:12;;;;;;;7.57;1.83;;;;;;;3.17;18.01;93191.56;5036140;28;20041;-87
2022/02/07 19:37:53;;;;;;;5.82;2.28;;;;;;;2.68;18.07;93145.16;5028558;28;20040;-86
2022/02/07 19:40:27;;;;;;;3.13;1.77;;;;;;;2.68;18.07;93164.03;4995121;28;21027;-87
2022/02/07 19:43:05;;;;;;;6.10;2.38;;;;;;;2.85;18.60;93202.19;5018835;28;20036;-88
2022/02/07 19:45:35;;;;;;;4.20;1.73;;;;;;;2.82;18.23;93181.94;5042667;28;20045;-87
2022/02/07 19:48:14;;;;;;;;;;;;;;;;;;;;;
2022/02/07 19:50:57;;;;;;;3.60;1.90;;;;;;;2.64;19.28;93204.25;5021456;28;20042;-87
2022/02/07 19:53:26;;;;;;;1.60;1.08;;;;;;;2.59;19.17;93208.47;5008094;28;20058;-86
2022/02/07 19:55:55;;;;;;;5.32;2.70;;;;;;;2.27;18.58;93165.56;4992593;28;20514;-89
2022/02/07 19:58:23;;;;;;;5.95;1.98;;;;;;;2.34;18.31;93178.38;5045405;28;20479;-86
2022/02/07 20:01:33;;;;;;;1.33;0.90;;;;;;;2.77;17.71;93231.72;4987165;28;20036;-87
2022/02/07 20:04:01;;;;;;;5.47;1.80;;;;;;;2.84;17.61;93226.47;5034138;28;20129;-87
2022/02/07 20:06:28;;;;;;;2.10;1.10;;;;;;;2.79;17.17;93206.44;5009529;28;20033;-89
2022/02/07 20:08:57;;;;;;;0.70;0.70;;;;;;;2.69;17.29;93188.88;5036858;28;20036;-86
2022/02/07 20:11:36;;;;;;;6.68;2.50;;;;;;;2.80;18.04;93220.94;5031235;28;20124;-87
2022/02/07 20:14:05;;;;;;;3.83;1.40;;;;;;;2.84;17.81;93242.78;5012719;28;20026;-85
2022/02/07 20:16:35;;;;;;;3.60;1.85;;;;;;;2.85;18.15;93261.66;5020255;28;20198;-86
2022/02/07 20:19:08;;;;;;;6.10;2.85;;;;;;;2.59;17.00;93187.81;5044785;28;20095;-86
2022/02/07 20:21:37;;;;;;;2.08;1.13;;;;;;;2.81;17.71;93257.91;5039016;28;20078;-85
2022/02/07 20:24:03;;;;;;;1.05;0.60;;;;;;;2.43;16.80;93200.34;5039142;28;20037;-86
2022/02/07 20:26:29;;;;;;;4.40;0.65;;;;;;;2.40;16.66;93192.25;5041398;28;20029;-87
2022/02/07 20:29:00;;;;;;;0.63;0.60;;;;;;;2.42;16.59;93190.22;5049207;28;20071;-87
2022/02/07 20:31:29;;;;;;;1.23;0.73;;;;;;;2.70;16.51;93211.13;5033671;28;20304;-86
2022/02/07 20:34:02;;;;;;;0.70;0.68;;;;;;;2.99;16.95;93275.97;5033583;28;20029;-86
2022/02/07 20:36:28;;;;;;;0.82;0.70;;;;;;;2.65;16.82;93223.91;5033339;28;20036;-87
2022/02/07 20:38:57;;;;;;;2.40;0.60;;;;;;;2.60;17.42;93228.97;5068766;28;20041;-87
2022/02/07 20:41:29;;;;;;;0.68;0.50;;;;;;;2.53;16.47;93215.34;5055553;28;20481;-87
2022/02/07 20:43:58;;;;;;;2.15;0.88;;;;;;;2.65;16.48;93230.88;5019498;28;20053;-89
2022/02/07 20:46:24;;;;;;;2.25;0.70;;;;;;;2.94;16.19;93265.50;5031991;28;20025;-87
2022/02/07 20:49:02;;;;;;;0.43;0.40;;;;;;;2.99;16.98;93285.53;5044047;28;20523;-87
2022/02/07 20:51:37;;;;;;;0.70;0.52;;;;;;;2.56;16.96;93240.72;5063523;28;20398;-87
2022/02/07 20:54:11;;;;;;;2.40;0.60;;;;;;;2.63;17.11;93267.28;5027839;28;20135;-89
2022/02/07 20:56:44;;;;;;;0.52;0.52;;;;;;;2.94;17.11;93327.59;5031614;28;20034;-87
2022/02/07 20:59:10;;;;;;;0.60;0.57;;;;;;;2.42;17.31;93254.84;5046824;28;20095;-87
2022/02/07 21:10:06;;;;;;;2.83;0.93;;;;;;;2.72;18.13;93337.59;4992929;28;20046;-89
2022/02/07 21:13:21;;;;;;;0.60;0.60;;;;;;;2.43;19.35;93331.34;4988253;28;20514;-89
2022/02/07 21:16:45;;;;;;;;;;;;;;;;;;;;;
2022/02/07 21:19:22;;;;;;;1.10;0.73;;;;;;;2.10;18.36;93303.28;5057218;28;20044;-89
2022/02/07 21:22:15;;;;;;;;;;;;;;;;;;;;;
2022/02/07 21:25:00;;;;;;;1.42;1.00;;;;;;;2.13;19.40;93318.34;5017781;28;20072;-90
2022/02/07 21:27:43;;;;;;;2.92;1.17;;;;;;;1.77;19.29;93269.00;5075516;28;20032;-90
2022/02/07 21:30:35;;;;;;;0.77;0.60;;;;;;;1.70;19.26;93260.53;5039649;28;20052;-90
2022/02/07 21:33:29;;;;;;;2.50;0.70;;;;;;;1.65;19.95;93275.88;5040831;28;20094;-90
2022/02/07 21:36:06;;;;;;;0.80;0.65;;;;;;;1.85;18.43;93281.66;5049821;28;20052;-89
2022/02/07 21:38:59;;;;;;;0.50;0.50;;;;;;;1.76;19.11;93267.44;5073585;28;20033;-91
2022/02/07 21:41:36;;;;;;;0.82;0.65;;;;;;;1.72;19.13;93265.50;5048310;28;20040;-89
2022/02/07 21:44:38;;;;;;;1.05;0.63;;;;;;;1.84;19.20;93305.88;5071600;28;20382;-90
2022/02/07 21:47:41;;;;;;;2.13;0.63;;;;;;;1.62;19.17;93282.25;5047103;28;20454;-90
2022/02/07 21:50:13;;;;;;;0.77;0.52;;;;;;;1.69;19.53;93297.69;5026961;28;20040;-90
2022/02/07 21:53:22;;;;;;;0.70;0.60;;;;;;;1.74;19.44;93321.06;5052590;28;20049;-90
2022/02/07 21:56:10;;;;;;;1.40;0.60;;;;;;;1.74;18.95;93304.78;5024581;28;20059;-89
2022/02/07 21:59:18;;;;;;;0.75;0.57;;;;;;;2.16;18.92;93360.03;5059546;28;20452;-90
2022/02/07 22:02:19;;;;;;;;;;;;;;;;;;;;;
2022/02/07 22:05:05;;;;;;;0.50;0.50;;;;;;;2.13;19.14;93363.03;5069547;28;20378;-89